createdAt,value
2019-02-08T00:01:26.695Z,3.90
2019-02-08T00:03:55.816Z,3.90
2019-02-08T00:06:24.931Z,3.80
2019-02-08T00:08:54.046Z,3.80
2019-02-08T00:11:23.295Z,3.80
2019-02-08T00:13:52.405Z,3.80
2019-02-08T00:16:21.483Z,3.80
2019-02-08T00:18:50.714Z,3.90
2019-02-08T00:21:19.885Z,3.90
2019-02-08T00:23:49.040Z,3.90
2019-02-08T00:26:18.117Z,4.00
2019-02-08T00:28:47.198Z,3.90
2019-02-08T00:31:16.314Z,4.00
2019-02-08T00:33:45.835Z,4.00
2019-02-08T00:36:14.941Z,4.00
2019-02-08T00:38:44.072Z,4.10
2019-02-08T00:41:13.176Z,4.10
2019-02-08T00:43:42.250Z,4.10
2019-02-08T00:46:11.359Z,4.10
2019-02-08T00:48:40.508Z,4.10
2019-02-08T00:51:10.774Z,4.20
2019-02-08T00:53:39.861Z,4.20
2019-02-08T00:56:08.933Z,4.20
2019-02-08T00:58:38.004Z,4.20
2019-02-08T01:01:07.098Z,4.20
2019-02-08T01:03:36.283Z,4.20
2019-02-08T01:06:05.832Z,4.20
2019-02-08T01:08:34.913Z,4.20
2019-02-08T01:11:03.979Z,4.20
2019-02-08T01:13:33.099Z,4.20
2019-02-08T01:16:02.196Z,4.20
2019-02-08T01:18:31.284Z,4.20
2019-02-08T01:21:00.376Z,4.30
2019-02-08T01:23:29.463Z,4.20
2019-02-08T01:25:58.539Z,4.20
2019-02-08T01:28:27.642Z,4.10
2019-02-08T01:30:56.723Z,4.10
2019-02-08T01:33:25.812Z,4.10
2019-02-08T01:35:54.921Z,4.10
2019-02-08T01:38:24.013Z,4.10
2019-02-08T01:40:53.111Z,4.10
2019-02-08T01:43:22.278Z,4.10
2019-02-08T01:45:51.459Z,4.10
2019-02-08T01:48:20.554Z,4.10
2019-02-08T01:50:49.647Z,4.10
2019-02-08T01:53:18.725Z,4.10
2019-02-08T01:55:47.885Z,4.00
2019-02-08T01:58:16.973Z,3.90
2019-02-08T02:00:46.183Z,3.90
2019-02-08T02:03:15.501Z,3.80
2019-02-08T02:05:44.718Z,3.70
2019-02-08T02:08:13.818Z,3.60
2019-02-08T02:10:44.223Z,3.50
2019-02-08T02:13:13.542Z,3.40
2019-02-08T02:15:42.827Z,3.30
2019-02-08T02:18:13.691Z,3.30
2019-02-08T02:20:43.113Z,3.30
2019-02-08T02:23:14.267Z,3.30
2019-02-08T02:25:43.353Z,3.30
2019-02-08T02:28:12.437Z,3.30
2019-02-08T02:30:41.558Z,3.30
2019-02-08T02:33:11.921Z,3.30
2019-02-08T02:35:41.080Z,3.30
2019-02-08T02:38:10.261Z,3.40
2019-02-08T02:40:39.351Z,3.40
2019-02-08T02:43:09.029Z,3.50
2019-02-08T02:45:39.050Z,3.50
2019-02-08T02:48:13.050Z,3.60
2019-02-08T02:50:42.213Z,3.60
2019-02-08T02:53:11.324Z,3.60
2019-02-08T02:55:40.429Z,3.70
2019-02-08T02:58:09.589Z,3.70
2019-02-08T03:00:41.492Z,3.70
2019-02-08T03:03:11.145Z,3.80
2019-02-08T03:05:40.433Z,3.80
2019-02-08T03:08:10.841Z,3.90
2019-02-08T03:10:39.950Z,3.90
2019-02-08T03:13:09.217Z,3.90
2019-02-08T03:15:38.306Z,3.90
2019-02-08T03:18:07.599Z,3.90
2019-02-08T03:20:36.675Z,3.90
2019-02-08T03:23:06.506Z,4.00
2019-02-08T03:25:35.719Z,4.00
2019-02-08T03:28:05.089Z,4.00
2019-02-08T03:30:55.821Z,4.00
2019-02-08T03:33:25.042Z,4.10
2019-02-08T03:35:54.135Z,4.10
2019-02-08T03:38:23.245Z,4.20
2019-02-08T03:40:52.327Z,4.20
2019-02-08T03:43:21.388Z,4.20
2019-02-08T03:45:52.655Z,4.20
2019-02-08T03:48:21.740Z,4.30
2019-02-08T03:50:50.840Z,4.30
2019-02-08T03:53:19.951Z,4.30
2019-02-08T03:55:52.686Z,4.30
2019-02-08T03:58:19.937Z,4.30
2019-02-08T04:01:08.066Z,4.40
2019-02-08T04:03:37.256Z,4.30
2019-02-08T04:06:06.453Z,4.40
2019-02-08T04:08:35.539Z,4.40
2019-02-08T04:11:04.631Z,4.40
2019-02-08T04:13:33.722Z,4.40
2019-02-08T04:16:02.803Z,4.40
2019-02-08T04:18:31.880Z,4.50
2019-02-08T04:21:01.012Z,4.50
2019-02-08T04:23:30.097Z,4.50
2019-02-08T04:25:59.298Z,4.50
2019-02-08T04:28:28.369Z,4.60
2019-02-08T04:30:57.520Z,4.60
2019-02-08T04:33:26.679Z,4.60
2019-02-08T04:35:55.850Z,4.60
2019-02-08T04:38:24.956Z,4.60
2019-02-08T04:40:54.049Z,4.60
2019-02-08T04:43:23.142Z,4.70
2019-02-08T04:45:52.238Z,4.60
2019-02-08T04:48:21.318Z,4.60
2019-02-08T04:50:50.418Z,4.60
2019-02-08T04:53:19.498Z,4.70
2019-02-08T04:55:48.612Z,4.70
2019-02-08T04:58:17.712Z,4.70
2019-02-08T05:00:46.794Z,4.70
2019-02-08T05:03:15.930Z,4.70
2019-02-08T05:05:45.106Z,4.70
2019-02-08T05:08:14.207Z,4.70
2019-02-08T05:10:43.319Z,4.70
2019-02-08T05:13:12.400Z,4.70
2019-02-08T05:15:41.460Z,4.70
2019-02-08T05:18:10.544Z,4.70
2019-02-08T05:20:39.670Z,4.70
2019-02-08T05:23:08.745Z,4.80
2019-02-08T05:25:37.825Z,4.80
2019-02-08T05:28:07.021Z,4.80
2019-02-08T05:30:36.397Z,4.80
2019-02-08T05:33:05.676Z,4.80
2019-02-08T05:35:34.784Z,4.80
2019-02-08T05:38:04.132Z,4.80
2019-02-08T05:40:33.215Z,4.80
2019-02-08T05:43:02.299Z,4.90
2019-02-08T05:45:31.422Z,4.80
2019-02-08T05:48:00.518Z,4.90
2019-02-08T05:50:29.690Z,4.90
2019-02-08T05:52:59.230Z,4.90
2019-02-08T05:55:29.686Z,4.90
2019-02-08T05:57:58.913Z,4.90
2019-02-08T06:00:39.521Z,4.90
2019-02-08T06:03:08.601Z,4.80
2019-02-08T06:05:38.586Z,4.80
2019-02-08T06:08:08.350Z,4.90
2019-02-08T06:10:37.435Z,4.90
2019-02-08T06:13:07.584Z,4.90
2019-02-08T06:15:36.939Z,4.90
2019-02-08T06:18:07.242Z,4.90
2019-02-08T06:20:36.387Z,4.90
2019-02-08T06:23:06.346Z,4.90
2019-02-08T06:25:35.561Z,4.90
2019-02-08T06:28:05.458Z,4.90
2019-02-08T06:30:36.356Z,4.90
2019-02-08T06:33:06.770Z,5.00
2019-02-08T06:35:35.851Z,4.90
2019-02-08T06:38:05.877Z,5.00
2019-02-08T06:40:36.179Z,5.00
2019-02-08T06:43:06.100Z,4.90
2019-02-08T06:45:35.278Z,4.90
2019-02-08T06:48:04.959Z,4.90
2019-02-08T06:50:34.031Z,4.90
2019-02-08T06:53:03.133Z,4.90
2019-02-08T06:55:32.246Z,4.90
2019-02-08T06:58:11.532Z,4.90
2019-02-08T07:00:51.808Z,4.90
2019-02-08T07:03:36.826Z,4.90
2019-02-08T07:06:20.919Z,4.90
2019-02-08T07:08:56.580Z,4.90
2019-02-08T07:11:33.566Z,5.00
2019-02-08T07:14:19.178Z,5.00
2019-02-08T07:17:06.159Z,5.00
2019-02-08T07:20:00.238Z,5.10
2019-02-08T07:22:47.306Z,5.00
2019-02-08T07:25:35.156Z,5.00
2019-02-08T07:28:19.078Z,5.10
2019-02-08T07:31:10.240Z,5.00
2019-02-08T07:33:58.975Z,5.10
2019-02-08T07:36:41.463Z,5.00
2019-02-08T07:39:32.640Z,5.10
2019-02-08T07:42:21.293Z,5.00
2019-02-08T07:45:09.458Z,5.10
2019-02-08T07:47:46.746Z,5.10
2019-02-08T07:50:27.892Z,5.10
2019-02-08T07:53:17.768Z,5.10
2019-02-08T07:56:13.394Z,5.10
2019-02-08T07:58:55.502Z,5.20
2019-02-08T08:01:49.806Z,5.20
2019-02-08T08:04:42.812Z,5.20
2019-02-08T08:07:22.502Z,5.30
2019-02-08T08:10:29.074Z,5.20
2019-02-08T08:13:17.479Z,5.30
2019-02-08T08:16:08.945Z,5.30
2019-02-08T08:18:53.917Z,5.30
2019-02-08T08:21:40.041Z,5.40
2019-02-08T08:24:34.991Z,5.40
2019-02-08T08:27:12.503Z,5.50
2019-02-08T08:30:16.571Z,5.50
2019-02-08T08:33:08.341Z,5.50
2019-02-08T08:36:09.999Z,5.60
2019-02-08T08:39:16.255Z,5.60
2019-02-08T08:42:40.533Z,5.60
2019-02-08T08:45:52.752Z,5.60
2019-02-08T08:49:01.634Z,5.60
2019-02-08T08:52:10.167Z,5.70
2019-02-08T08:55:09.931Z,5.80
2019-02-08T08:58:16.441Z,5.80
2019-02-08T09:01:27.650Z,5.80
2019-02-08T09:04:46.807Z,5.80
2019-02-08T09:07:58.203Z,5.90
2019-02-08T09:11:10.320Z,5.90
2019-02-08T09:14:45.021Z,5.90
2019-02-08T09:17:53.647Z,5.90
2019-02-08T09:20:54.108Z,5.90
2019-02-08T09:24:07.289Z,5.90
2019-02-08T09:27:26.642Z,6.00
2019-02-08T09:30:20.510Z,6.10
2019-02-08T09:33:20.100Z,6.10
2019-02-08T09:36:30.072Z,6.10
2019-02-08T09:39:27.433Z,6.10
2019-02-08T09:42:30.037Z,6.10
2019-02-08T09:46:01.815Z,6.10
2019-02-08T09:49:24.019Z,6.10
2019-02-08T09:52:35.051Z,6.20
2019-02-08T09:55:46.871Z,6.20
2019-02-08T09:59:00.582Z,6.20
2019-02-08T10:02:01.093Z,6.20
2019-02-08T10:05:22.767Z,6.30
2019-02-08T10:08:26.085Z,6.40
2019-02-08T10:11:32.162Z,6.40
2019-02-08T10:14:51.054Z,6.50
2019-02-08T10:18:07.054Z,6.50
2019-02-08T10:21:11.859Z,6.60
2019-02-08T10:24:12.702Z,6.60
2019-02-08T10:27:19.057Z,6.60
2019-02-08T10:30:33.616Z,6.70
2019-02-08T10:33:46.787Z,6.70
2019-02-08T10:36:50.753Z,6.70
2019-02-08T10:40:00.643Z,6.80
2019-02-08T10:42:49.809Z,6.80
2019-02-08T10:45:54.761Z,6.90
2019-02-08T10:49:26.437Z,6.80
2019-02-08T10:52:50.849Z,6.90
2019-02-08T10:56:03.362Z,7.00
2019-02-08T10:59:22.789Z,7.10
2019-02-08T11:02:35.144Z,7.10
2019-02-08T11:05:47.934Z,7.30
2019-02-08T11:08:55.168Z,7.40
2019-02-08T11:12:01.385Z,7.60
2019-02-08T11:15:04.929Z,7.60
2019-02-08T11:18:17.830Z,7.70
2019-02-08T11:20:46.908Z,7.70
2019-02-08T11:23:15.987Z,7.70
2019-02-08T11:25:45.074Z,7.70
2019-02-08T11:28:14.150Z,7.60
2019-02-08T11:30:43.268Z,7.60
2019-02-08T11:33:12.338Z,7.50
2019-02-08T11:35:41.500Z,7.50
2019-02-08T11:38:10.580Z,7.40
2019-02-08T11:40:39.665Z,7.40
2019-02-08T11:43:08.733Z,7.40
2019-02-08T11:45:37.904Z,7.40
2019-02-08T11:48:07.304Z,7.40
2019-02-08T11:50:36.416Z,7.50
2019-02-08T11:53:11.658Z,7.60
2019-02-08T11:55:40.763Z,7.60
2019-02-08T11:58:09.914Z,7.60
2019-02-08T12:00:43.407Z,7.50
2019-02-08T12:03:12.488Z,7.50
2019-02-08T12:05:41.546Z,7.50
2019-02-08T12:08:10.824Z,7.40
2019-02-08T12:10:39.996Z,7.40
2019-02-08T12:13:09.186Z,7.40
2019-02-08T12:15:38.246Z,7.30
2019-02-08T12:18:07.334Z,7.30
2019-02-08T12:20:36.410Z,7.20
2019-02-08T12:23:05.663Z,7.10
2019-02-08T12:25:34.736Z,7.00
2019-02-08T12:28:03.916Z,7.00
2019-02-08T12:30:35.479Z,7.00
2019-02-08T12:33:04.918Z,7.00
2019-02-08T12:35:34.021Z,7.00
2019-02-08T12:38:03.089Z,7.00
2019-02-08T12:40:32.182Z,7.00
2019-02-08T12:43:01.272Z,7.00
2019-02-08T12:45:30.360Z,7.10
2019-02-08T12:47:59.444Z,7.10
2019-02-08T12:50:28.530Z,7.10
2019-02-08T12:52:57.624Z,7.20
2019-02-08T12:55:26.695Z,7.20
2019-02-08T12:57:55.818Z,7.30
2019-02-08T13:00:24.994Z,7.50
2019-02-08T13:02:54.112Z,7.70
2019-02-08T13:05:23.510Z,7.80
2019-02-08T13:07:52.602Z,8.00
2019-02-08T13:10:40.792Z,8.10
2019-02-08T13:13:09.940Z,8.30
2019-02-08T13:15:39.021Z,8.20
2019-02-08T13:18:08.116Z,8.30
2019-02-08T13:20:37.254Z,8.30
2019-02-08T13:23:06.342Z,8.40
2019-02-08T13:25:35.462Z,8.40
2019-02-08T13:28:04.670Z,8.50
2019-02-08T13:30:33.919Z,8.50
2019-02-08T13:33:03.076Z,8.60
2019-02-08T13:35:32.258Z,8.60
2019-02-08T13:38:01.422Z,8.70
2019-02-08T13:40:31.820Z,8.70
2019-02-08T13:43:01.061Z,8.70
2019-02-08T13:45:30.363Z,8.80
2019-02-08T13:47:59.606Z,8.80
2019-02-08T13:50:29.075Z,8.80
2019-02-08T13:52:58.290Z,8.80
2019-02-08T13:55:28.015Z,8.80
2019-02-08T13:57:57.145Z,8.90
2019-02-08T14:00:29.258Z,8.90
2019-02-08T14:02:58.532Z,8.90
2019-02-08T14:05:27.725Z,9.00
2019-02-08T14:07:56.914Z,9.10
2019-02-08T14:10:26.068Z,9.10
2019-02-08T14:12:55.296Z,9.10
2019-02-08T14:15:24.852Z,9.10
2019-02-08T14:17:54.212Z,9.10
2019-02-08T14:20:24.322Z,9.10
2019-02-08T14:22:53.606Z,9.00
2019-02-08T14:25:22.794Z,9.00
2019-02-08T14:27:51.884Z,9.00
2019-02-08T14:30:32.109Z,9.00
2019-02-08T14:33:05.206Z,8.90
2019-02-08T14:35:34.638Z,8.90
2019-02-08T14:38:07.323Z,8.80
2019-02-08T14:40:36.539Z,8.70
2019-02-08T14:43:05.938Z,8.70
2019-02-08T14:45:35.055Z,8.60
2019-02-08T14:48:04.722Z,8.50
2019-02-08T14:50:33.897Z,8.50
2019-02-08T14:53:03.156Z,8.50
2019-02-08T14:55:33.520Z,8.50
2019-02-08T14:58:02.745Z,8.40
2019-02-08T15:00:31.899Z,8.30
2019-02-08T15:03:01.127Z,8.40
2019-02-08T15:05:30.378Z,8.40
2019-02-08T15:07:59.655Z,8.40
2019-02-08T15:10:34.209Z,8.40
2019-02-08T15:13:03.378Z,8.30
2019-02-08T15:15:32.492Z,8.30
2019-02-08T15:18:01.563Z,8.30
2019-02-08T15:20:31.291Z,8.30
2019-02-08T15:23:00.384Z,8.20
2019-02-08T15:25:29.588Z,8.20
2019-02-08T15:27:58.691Z,8.20
2019-02-08T15:30:30.299Z,8.20
2019-02-08T15:32:59.568Z,8.20
2019-02-08T15:35:29.387Z,8.10
2019-02-08T15:37:58.623Z,8.10
2019-02-08T15:40:40.035Z,8.10
2019-02-08T15:43:09.957Z,8.10
2019-02-08T15:45:39.261Z,8.10
2019-02-08T15:48:08.411Z,8.10
2019-02-08T15:50:37.569Z,8.10
2019-02-08T15:53:06.753Z,8.00
2019-02-08T15:55:37.139Z,8.00
2019-02-08T15:58:06.541Z,8.00
2019-02-08T16:00:35.884Z,7.90
2019-02-08T16:03:07.696Z,7.90
2019-02-08T16:05:36.856Z,7.80
2019-02-08T16:08:06.224Z,7.70
2019-02-08T16:10:35.529Z,7.70
2019-02-08T16:13:04.831Z,7.60
2019-02-08T16:15:34.129Z,7.60
2019-02-08T16:18:03.318Z,7.60
2019-02-08T16:20:32.514Z,7.50
2019-02-08T16:23:01.687Z,7.50
2019-02-08T16:25:31.297Z,7.40
2019-02-08T16:28:00.431Z,7.30
2019-02-08T16:30:30.892Z,7.30
2019-02-08T16:33:00.085Z,7.30
2019-02-08T16:35:29.528Z,7.20
2019-02-08T16:37:58.611Z,7.20
2019-02-08T16:40:28.411Z,7.30
2019-02-08T16:42:58.022Z,7.20
2019-02-08T16:45:29.361Z,7.20
2019-02-08T16:47:58.984Z,7.10
2019-02-08T16:50:28.929Z,7.10
2019-02-08T16:52:58.099Z,7.10
2019-02-08T16:55:27.485Z,7.10
2019-02-08T16:57:56.660Z,7.10
2019-02-08T17:00:28.109Z,7.10
2019-02-08T17:02:58.305Z,7.00
2019-02-08T17:05:28.727Z,7.00
2019-02-08T17:07:57.944Z,7.00
2019-02-08T17:10:27.209Z,7.00
2019-02-08T17:12:56.457Z,6.90
2019-02-08T17:15:26.398Z,6.90
2019-02-08T17:17:59.154Z,6.90
2019-02-08T17:20:36.820Z,6.90
2019-02-08T17:23:06.190Z,6.90
2019-02-08T17:25:35.271Z,6.90
2019-02-08T17:28:05.062Z,6.90
2019-02-08T17:30:34.171Z,6.90
2019-02-08T17:33:03.266Z,6.90
2019-02-08T17:35:32.511Z,6.90
2019-02-08T17:38:01.673Z,6.80
2019-02-08T17:40:32.225Z,6.80
2019-02-08T17:43:01.336Z,6.80
2019-02-08T17:45:30.434Z,6.80
2019-02-08T17:48:01.979Z,6.70
2019-02-08T17:50:31.082Z,6.70
2019-02-08T17:53:00.185Z,6.70
2019-02-08T17:55:29.509Z,6.70
2019-02-08T17:58:03.512Z,6.70
2019-02-08T18:00:44.055Z,6.70
2019-02-08T18:03:16.218Z,6.60
2019-02-08T18:05:45.294Z,6.60
2019-02-08T18:08:14.391Z,6.60
2019-02-08T18:10:43.818Z,6.60
2019-02-08T18:13:13.935Z,6.50
2019-02-08T18:15:43.163Z,6.50
2019-02-08T18:18:14.706Z,6.50
2019-02-08T18:20:45.772Z,6.50
2019-02-08T18:23:14.872Z,6.50
2019-02-08T18:25:44.047Z,6.50
2019-02-08T18:28:13.210Z,6.50
2019-02-08T18:30:42.321Z,6.40
2019-02-08T18:33:11.352Z,6.50
2019-02-08T18:35:40.455Z,6.50
2019-02-08T18:38:09.636Z,6.40
2019-02-08T18:40:38.738Z,6.40
2019-02-08T18:43:07.821Z,6.40
2019-02-08T18:45:36.960Z,6.40
2019-02-08T18:48:06.391Z,6.40
2019-02-08T18:50:41.168Z,6.40
2019-02-08T18:53:10.398Z,6.40
2019-02-08T18:55:39.669Z,6.40
2019-02-08T18:58:18.443Z,6.40
2019-02-08T19:00:44.326Z,6.40
2019-02-08T19:03:13.630Z,6.40
2019-02-08T19:05:42.797Z,6.40
2019-02-08T19:08:11.994Z,6.50
2019-02-08T19:10:41.305Z,6.50
2019-02-08T19:13:10.492Z,6.50
2019-02-08T19:15:39.640Z,6.50
2019-02-08T19:18:08.894Z,6.50
2019-02-08T19:20:38.086Z,6.40
2019-02-08T19:23:07.258Z,6.40
2019-02-08T19:25:38.660Z,6.40
2019-02-08T19:28:08.950Z,6.30
2019-02-08T19:30:39.085Z,6.30
2019-02-08T19:33:08.411Z,6.30
2019-02-08T19:35:37.664Z,6.40
2019-02-08T19:38:07.495Z,6.40
2019-02-08T19:40:38.697Z,6.40
2019-02-08T19:43:08.376Z,6.30
2019-02-08T19:45:37.631Z,6.30
2019-02-08T19:48:08.021Z,6.20
2019-02-08T19:50:42.226Z,6.20
2019-02-08T19:53:11.447Z,6.20
2019-02-08T19:55:40.886Z,6.20
2019-02-08T19:58:10.950Z,6.20
2019-02-08T20:00:40.231Z,6.20
2019-02-08T20:03:09.769Z,6.20
2019-02-08T20:05:39.201Z,6.10
2019-02-08T20:08:09.473Z,6.10
2019-02-08T20:10:40.257Z,6.00
2019-02-08T20:13:09.520Z,6.00
2019-02-08T20:15:38.890Z,5.90
2019-02-08T20:18:08.770Z,5.80
2019-02-08T20:20:38.038Z,5.70
2019-02-08T20:23:07.837Z,5.70
2019-02-08T20:25:38.670Z,5.60
2019-02-08T20:28:07.910Z,5.50
2019-02-08T20:30:37.490Z,5.50
2019-02-08T20:33:07.040Z,5.50
2019-02-08T20:35:36.438Z,5.60
2019-02-08T20:38:06.705Z,5.60
2019-02-08T20:40:58.202Z,5.70
2019-02-08T20:43:27.459Z,5.80
2019-02-08T20:45:56.614Z,5.90
2019-02-08T20:48:25.716Z,6.00
2019-02-08T20:50:54.859Z,6.10
2019-02-08T20:53:24.156Z,6.10
2019-02-08T20:55:53.886Z,6.10
2019-02-08T20:58:22.971Z,6.20
2019-02-08T21:00:53.633Z,6.20
2019-02-08T21:03:23.534Z,6.20
2019-02-08T21:05:52.624Z,6.20
2019-02-08T21:08:22.710Z,6.30
2019-02-08T21:10:51.774Z,6.30
2019-02-08T21:13:20.911Z,6.30
2019-02-08T21:15:49.997Z,6.30
2019-02-08T21:18:19.111Z,6.30
2019-02-08T21:20:48.784Z,6.30
2019-02-08T21:23:18.261Z,6.30
2019-02-08T21:25:52.137Z,6.30
2019-02-08T21:28:18.322Z,6.40
2019-02-08T21:30:47.402Z,6.30
2019-02-08T21:33:16.568Z,6.40
2019-02-08T21:35:45.682Z,6.40
2019-02-08T21:38:14.802Z,6.60
2019-02-08T21:40:43.898Z,6.50
2019-02-08T21:43:13.000Z,6.50
2019-02-08T21:45:43.797Z,6.50
2019-02-08T21:48:13.808Z,6.50
2019-02-08T21:50:43.583Z,6.60
2019-02-08T21:53:12.644Z,6.60
2019-02-08T21:55:41.887Z,6.60
2019-02-08T21:58:11.085Z,6.60
2019-02-08T22:00:41.498Z,6.70
2019-02-08T22:03:11.386Z,6.70
2019-02-08T22:06:07.203Z,6.70
2019-02-08T22:08:36.329Z,6.70
2019-02-08T22:11:05.603Z,6.70
2019-02-08T22:13:34.691Z,6.60
2019-02-08T22:16:04.026Z,6.60
2019-02-08T22:18:33.201Z,6.70
2019-02-08T22:21:02.328Z,6.60
2019-02-08T22:23:31.501Z,6.60
2019-02-08T22:26:00.658Z,6.60
2019-02-08T22:28:29.783Z,6.60
2019-02-08T22:30:58.951Z,6.60
2019-02-08T22:33:28.101Z,6.60
2019-02-08T22:35:57.211Z,6.60
2019-02-08T22:38:26.312Z,6.70
2019-02-08T22:40:55.421Z,6.70
2019-02-08T22:43:24.501Z,6.60
2019-02-08T22:45:53.605Z,6.70
2019-02-08T22:48:22.714Z,6.70
2019-02-08T22:50:51.807Z,6.70
2019-02-08T22:53:21.005Z,6.60
2019-02-08T22:55:50.104Z,6.60
2019-02-08T22:58:19.220Z,6.60
2019-02-08T23:01:27.285Z,6.60
2019-02-08T23:03:57.637Z,6.60
2019-02-08T23:06:26.933Z,6.60
2019-02-08T23:08:56.056Z,6.60
2019-02-08T23:11:25.511Z,6.60
2019-02-08T23:13:54.615Z,6.60
2019-02-08T23:16:23.791Z,6.60
2019-02-08T23:18:52.911Z,6.60
2019-02-08T23:21:22.273Z,6.70
2019-02-08T23:23:51.437Z,6.70
2019-02-08T23:26:20.531Z,6.70
2019-02-08T23:28:49.599Z,6.70
2019-02-08T23:31:18.679Z,6.70
2019-02-08T23:33:47.853Z,6.70
2019-02-08T23:36:17.007Z,6.70
2019-02-08T23:38:46.169Z,6.70
2019-02-08T23:41:15.261Z,6.70
2019-02-08T23:43:44.395Z,6.70
2019-02-08T23:46:13.471Z,6.70
2019-02-08T23:48:42.591Z,6.70
2019-02-08T23:51:11.679Z,6.70
2019-02-08T23:53:40.775Z,6.80
2019-02-08T23:56:09.887Z,6.80
2019-02-08T23:58:38.969Z,6.70
